sensor_id;sensor_type;location;lat;lon;timestamp;P1;durP1;ratioP1;P2;durP2;ratioP2
69034;SDS011;56091;55.756;37.412;2022-08-19T00:02:21;12.77;;;5.87;;
69034;SDS011;56091;55.756;37.412;2022-08-19T00:07:22;20.80;;;5.25;;
69034;SDS011;56091;55.756;37.412;2022-08-19T00:12:23;12.73;;;5.50;;
69034;SDS011;56091;55.756;37.412;2022-08-19T00:17:25;9.38;;;4.65;;
69034;SDS011;56091;55.756;37.412;2022-08-19T00:22:26;10.67;;;4.83;;
69034;SDS011;56091;55.756;37.412;2022-08-19T00:27:29;10.00;;;4.78;;
69034;SDS011;56091;55.756;37.412;2022-08-19T00:32:30;14.40;;;4.77;;
69034;SDS011;56091;55.756;37.412;2022-08-19T00:37:33;11.27;;;4.60;;
69034;SDS011;56091;55.756;37.412;2022-08-19T00:42:35;12.70;;;5.03;;
69034;SDS011;56091;55.756;37.412;2022-08-19T00:47:36;10.73;;;4.85;;
69034;SDS011;56091;55.756;37.412;2022-08-19T00:52:38;15.13;;;5.17;;
69034;SDS011;56091;55.756;37.412;2022-08-19T00:57:48;15.23;;;5.18;;
69034;SDS011;56091;55.756;37.412;2022-08-19T01:02:56;15.67;;;5.33;;
69034;SDS011;56091;55.756;37.412;2022-08-19T01:07:58;12.30;;;5.70;;
69034;SDS011;56091;55.756;37.412;2022-08-19T01:13:02;12.70;;;5.80;;
69034;SDS011;56091;55.756;37.412;2022-08-19T01:18:04;14.15;;;5.90;;
69034;SDS011;56091;55.756;37.412;2022-08-19T01:23:08;15.80;;;6.13;;
69034;SDS011;56091;55.756;37.412;2022-08-19T01:28:20;16.50;;;6.20;;
69034;SDS011;56091;55.756;37.412;2022-08-19T01:33:26;15.63;;;6.23;;
69034;SDS011;56091;55.756;37.412;2022-08-19T01:38:27;12.65;;;6.05;;
69034;SDS011;56091;55.756;37.412;2022-08-19T01:43:32;13.27;;;6.17;;
69034;SDS011;56091;55.756;37.412;2022-08-19T01:48:40;16.35;;;5.97;;
69034;SDS011;56091;55.756;37.412;2022-08-19T01:53:43;15.93;;;5.97;;
69034;SDS011;56091;55.756;37.412;2022-08-19T01:58:53;15.15;;;5.72;;
69034;SDS011;56091;55.756;37.412;2022-08-19T02:04:00;13.53;;;6.10;;
69034;SDS011;56091;55.756;37.412;2022-08-19T02:09:04;12.18;;;5.70;;
69034;SDS011;56091;55.756;37.412;2022-08-19T02:14:06;13.97;;;6.30;;
69034;SDS011;56091;55.756;37.412;2022-08-19T02:19:08;14.15;;;5.95;;
69034;SDS011;56091;55.756;37.412;2022-08-19T02:24:10;14.70;;;6.13;;
69034;SDS011;56091;55.756;37.412;2022-08-19T02:29:12;14.70;;;6.40;;
69034;SDS011;56091;55.756;37.412;2022-08-19T02:34:13;11.53;;;5.87;;
69034;SDS011;56091;55.756;37.412;2022-08-19T02:39:15;12.82;;;6.20;;
69034;SDS011;56091;55.756;37.412;2022-08-19T02:44:16;13.70;;;5.73;;
69034;SDS011;56091;55.756;37.412;2022-08-19T02:49:17;13.98;;;5.88;;
69034;SDS011;56091;55.756;37.412;2022-08-19T02:54:18;12.10;;;5.93;;
69034;SDS011;56091;55.756;37.412;2022-08-19T02:59:19;11.50;;;5.90;;
69034;SDS011;56091;55.756;37.412;2022-08-19T03:04:22;10.93;;;5.60;;
69034;SDS011;56091;55.756;37.412;2022-08-19T03:09:24;16.35;;;7.43;;
69034;SDS011;56091;55.756;37.412;2022-08-19T03:14:26;13.33;;;6.30;;
69034;SDS011;56091;55.756;37.412;2022-08-19T03:19:31;20.60;;;6.45;;
69034;SDS011;56091;55.756;37.412;2022-08-19T03:24:32;14.10;;;5.57;;
69034;SDS011;56091;55.756;37.412;2022-08-19T03:29:36;19.75;;;7.00;;
69034;SDS011;56091;55.756;37.412;2022-08-19T03:34:38;13.27;;;5.77;;
69034;SDS011;56091;55.756;37.412;2022-08-19T03:39:40;13.77;;;5.65;;
69034;SDS011;56091;55.756;37.412;2022-08-19T03:44:42;13.23;;;5.50;;
69034;SDS011;56091;55.756;37.412;2022-08-19T03:49:45;13.60;;;5.53;;
69034;SDS011;56091;55.756;37.412;2022-08-19T03:54:47;14.77;;;5.30;;
69034;SDS011;56091;55.756;37.412;2022-08-19T03:59:48;13.75;;;5.57;;
69034;SDS011;56091;55.756;37.412;2022-08-19T04:04:49;13.63;;;5.43;;
69034;SDS011;56091;55.756;37.412;2022-08-19T04:09:54;10.38;;;5.45;;
69034;SDS011;56091;55.756;37.412;2022-08-19T04:14:55;11.87;;;6.10;;
69034;SDS011;56091;55.756;37.412;2022-08-19T04:19:55;20.43;;;5.90;;
69034;SDS011;56091;55.756;37.412;2022-08-19T04:25:00;16.63;;;5.50;;
69034;SDS011;56091;55.756;37.412;2022-08-19T04:30:01;18.63;;;5.87;;
69034;SDS011;56091;55.756;37.412;2022-08-19T04:35:07;16.48;;;6.38;;
69034;SDS011;56091;55.756;37.412;2022-08-19T04:40:10;14.63;;;6.17;;
69034;SDS011;56091;55.756;37.412;2022-08-19T04:45:30;14.25;;;6.03;;
69034;SDS011;56091;55.756;37.412;2022-08-19T04:50:44;15.97;;;5.90;;
69034;SDS011;56091;55.756;37.412;2022-08-19T04:55:48;16.25;;;6.05;;
69034;SDS011;56091;55.756;37.412;2022-08-19T05:00:49;15.93;;;5.67;;
69034;SDS011;56091;55.756;37.412;2022-08-19T05:05:50;14.07;;;6.38;;
69034;SDS011;56091;55.756;37.412;2022-08-19T05:10:51;17.60;;;6.53;;
69034;SDS011;56091;55.756;37.412;2022-08-19T05:15:53;13.05;;;5.93;;
69034;SDS011;56091;55.756;37.412;2022-08-19T05:20:56;15.93;;;5.93;;
69034;SDS011;56091;55.756;37.412;2022-08-19T05:26:16;16.55;;;6.05;;
69034;SDS011;56091;55.756;37.412;2022-08-19T05:31:16;14.93;;;5.10;;
69034;SDS011;56091;55.756;37.412;2022-08-19T05:36:17;15.50;;;5.70;;
69034;SDS011;56091;55.756;37.412;2022-08-19T05:41:20;16.60;;;5.77;;
69034;SDS011;56091;55.756;37.412;2022-08-19T05:46:29;15.98;;;5.95;;
69034;SDS011;56091;55.756;37.412;2022-08-19T05:51:30;17.33;;;5.37;;
69034;SDS011;56091;55.756;37.412;2022-08-19T05:56:31;13.75;;;5.90;;
69034;SDS011;56091;55.756;37.412;2022-08-19T06:01:32;19.03;;;6.10;;
69034;SDS011;56091;55.756;37.412;2022-08-19T06:06:38;13.63;;;5.70;;
69034;SDS011;56091;55.756;37.412;2022-08-19T06:23:46;16.07;;;5.70;;
69034;SDS011;56091;55.756;37.412;2022-08-19T06:28:47;20.50;;;6.07;;
69034;SDS011;56091;55.756;37.412;2022-08-19T06:33:49;15.23;;;6.33;;
69034;SDS011;56091;55.756;37.412;2022-08-19T06:38:50;14.07;;;5.57;;
69034;SDS011;56091;55.756;37.412;2022-08-19T06:43:51;14.07;;;6.00;;
69034;SDS011;56091;55.756;37.412;2022-08-19T06:48:52;15.93;;;5.68;;
69034;SDS011;56091;55.756;37.412;2022-08-19T06:53:54;16.07;;;6.37;;
69034;SDS011;56091;55.756;37.412;2022-08-19T06:58:56;12.57;;;5.78;;
69034;SDS011;56091;55.756;37.412;2022-08-19T07:04:00;18.17;;;5.73;;
69034;SDS011;56091;55.756;37.412;2022-08-19T07:09:03;23.33;;;6.00;;
69034;SDS011;56091;55.756;37.412;2022-08-19T07:14:06;12.53;;;5.73;;
69034;SDS011;56091;55.756;37.412;2022-08-19T07:19:07;14.90;;;5.70;;
69034;SDS011;56091;55.756;37.412;2022-08-19T07:24:08;15.53;;;5.90;;
69034;SDS011;56091;55.756;37.412;2022-08-19T07:29:10;16.90;;;5.75;;
69034;SDS011;56091;55.756;37.412;2022-08-19T07:34:14;18.13;;;5.80;;
69034;SDS011;56091;55.756;37.412;2022-08-19T07:39:22;12.55;;;6.18;;
69034;SDS011;56091;55.756;37.412;2022-08-19T07:44:25;14.73;;;6.40;;
69034;SDS011;56091;55.756;37.412;2022-08-19T07:49:27;12.10;;;5.45;;
69034;SDS011;56091;55.756;37.412;2022-08-19T07:54:30;16.50;;;5.77;;
69034;SDS011;56091;55.756;37.412;2022-08-19T07:59:35;13.55;;;6.05;;
69034;SDS011;56091;55.756;37.412;2022-08-19T08:04:36;10.10;;;5.30;;
69034;SDS011;56091;55.756;37.412;2022-08-19T08:09:56;23.30;;;5.20;;
69034;SDS011;56091;55.756;37.412;2022-08-19T08:14:58;16.43;;;4.93;;
69034;SDS011;56091;55.756;37.412;2022-08-19T08:20:05;22.58;;;5.03;;
69034;SDS011;56091;55.756;37.412;2022-08-19T08:25:14;17.97;;;4.70;;
69034;SDS011;56091;55.756;37.412;2022-08-19T08:30:23;21.17;;;5.25;;
69034;SDS011;56091;55.756;37.412;2022-08-19T08:35:25;11.57;;;4.77;;
69034;SDS011;56091;55.756;37.412;2022-08-19T08:40:50;14.05;;;4.80;;
69034;SDS011;56091;55.756;37.412;2022-08-19T08:46:03;12.93;;;5.27;;
69034;SDS011;56091;55.756;37.412;2022-08-19T08:51:11;15.32;;;5.95;;
69034;SDS011;56091;55.756;37.412;2022-08-19T08:56:17;17.20;;;5.27;;
69034;SDS011;56091;55.756;37.412;2022-08-19T09:01:19;12.02;;;5.32;;
69034;SDS011;56091;55.756;37.412;2022-08-19T09:16:49;14.90;;;5.57;;
69034;SDS011;56091;55.756;37.412;2022-08-19T09:21:51;13.93;;;5.15;;
69034;SDS011;56091;55.756;37.412;2022-08-19T09:26:52;17.23;;;4.93;;
69034;SDS011;56091;55.756;37.412;2022-08-19T09:31:56;13.33;;;5.30;;
69034;SDS011;56091;55.756;37.412;2022-08-19T09:36:59;14.70;;;5.20;;
69034;SDS011;56091;55.756;37.412;2022-08-19T09:42:02;20.40;;;5.43;;
69034;SDS011;56091;55.756;37.412;2022-08-19T09:47:05;17.55;;;4.93;;
69034;SDS011;56091;55.756;37.412;2022-08-19T09:52:07;18.03;;;5.70;;
69034;SDS011;56091;55.756;37.412;2022-08-19T09:57:09;13.80;;;5.13;;
69034;SDS011;56091;55.756;37.412;2022-08-19T10:02:10;17.70;;;4.30;;
69034;SDS011;56091;55.756;37.412;2022-08-19T10:07:12;13.50;;;4.82;;
69034;SDS011;56091;55.756;37.412;2022-08-19T10:12:13;16.07;;;4.40;;
69034;SDS011;56091;55.756;37.412;2022-08-19T10:17:15;13.25;;;4.80;;
69034;SDS011;56091;55.756;37.412;2022-08-19T10:22:17;15.37;;;4.77;;
69034;SDS011;56091;55.756;37.412;2022-08-19T10:27:18;15.50;;;4.50;;
69034;SDS011;56091;55.756;37.412;2022-08-19T10:32:19;10.77;;;4.23;;
69034;SDS011;56091;55.756;37.412;2022-08-19T10:37:22;11.45;;;4.50;;
69034;SDS011;56091;55.756;37.412;2022-08-19T10:42:23;17.60;;;5.70;;
69034;SDS011;56091;55.756;37.412;2022-08-19T10:47:27;12.70;;;5.18;;
69034;SDS011;56091;55.756;37.412;2022-08-19T10:52:27;14.80;;;4.90;;
69034;SDS011;56091;55.756;37.412;2022-08-19T10:57:35;16.17;;;4.30;;
69034;SDS011;56091;55.756;37.412;2022-08-19T11:02:35;26.37;;;5.00;;
69034;SDS011;56091;55.756;37.412;2022-08-19T11:07:37;18.27;;;4.07;;
69034;SDS011;56091;55.756;37.412;2022-08-19T11:12:39;13.30;;;3.60;;
69034;SDS011;56091;55.756;37.412;2022-08-19T11:17:41;11.38;;;3.47;;
69034;SDS011;56091;55.756;37.412;2022-08-19T11:22:45;14.10;;;3.50;;
69034;SDS011;56091;55.756;37.412;2022-08-19T11:27:46;15.63;;;3.63;;
69034;SDS011;56091;55.756;37.412;2022-08-19T11:32:51;14.53;;;3.83;;
69034;SDS011;56091;55.756;37.412;2022-08-19T11:37:51;10.38;;;3.60;;
69034;SDS011;56091;55.756;37.412;2022-08-19T11:42:52;17.93;;;3.87;;
69034;SDS011;56091;55.756;37.412;2022-08-19T11:47:56;11.38;;;3.45;;
69034;SDS011;56091;55.756;37.412;2022-08-19T11:53:00;12.10;;;3.70;;
69034;SDS011;56091;55.756;37.412;2022-08-19T11:58:01;14.33;;;3.40;;
69034;SDS011;56091;55.756;37.412;2022-08-19T12:03:03;9.67;;;3.60;;
69034;SDS011;56091;55.756;37.412;2022-08-19T12:08:04;9.32;;;3.60;;
69034;SDS011;56091;55.756;37.412;2022-08-19T12:13:05;13.10;;;3.60;;
69034;SDS011;56091;55.756;37.412;2022-08-19T12:18:07;9.68;;;3.75;;
69034;SDS011;56091;55.756;37.412;2022-08-19T12:23:09;13.90;;;4.27;;
69034;SDS011;56091;55.756;37.412;2022-08-19T12:28:10;12.10;;;4.15;;
69034;SDS011;56091;55.756;37.412;2022-08-19T12:33:11;13.30;;;3.97;;
69034;SDS011;56091;55.756;37.412;2022-08-19T12:38:17;9.20;;;3.97;;
69034;SDS011;56091;55.756;37.412;2022-08-19T12:43:18;8.37;;;3.90;;
69034;SDS011;56091;55.756;37.412;2022-08-19T12:48:23;9.00;;;4.10;;
69034;SDS011;56091;55.756;37.412;2022-08-19T12:53:26;14.10;;;4.30;;
69034;SDS011;56091;55.756;37.412;2022-08-19T12:58:29;11.25;;;4.10;;
69034;SDS011;56091;55.756;37.412;2022-08-19T13:03:30;14.43;;;4.10;;
69034;SDS011;56091;55.756;37.412;2022-08-19T13:08:31;14.10;;;4.30;;
69034;SDS011;56091;55.756;37.412;2022-08-19T13:13:32;10.75;;;4.10;;
69034;SDS011;56091;55.756;37.412;2022-08-19T13:18:33;12.53;;;4.43;;
69034;SDS011;56091;55.756;37.412;2022-08-19T13:23:34;14.93;;;4.32;;
69034;SDS011;56091;55.756;37.412;2022-08-19T13:28:36;17.63;;;4.40;;
69034;SDS011;56091;55.756;37.412;2022-08-19T13:33:55;11.82;;;4.30;;
69034;SDS011;56091;55.756;37.412;2022-08-19T13:38:56;15.73;;;6.83;;
69034;SDS011;56091;55.756;37.412;2022-08-19T13:43:57;15.32;;;7.30;;
69034;SDS011;56091;55.756;37.412;2022-08-19T13:48:58;14.17;;;6.17;;
69034;SDS011;56091;55.756;37.412;2022-08-19T13:53:58;13.95;;;5.90;;
69034;SDS011;56091;55.756;37.412;2022-08-19T13:58:59;11.40;;;5.43;;
69034;SDS011;56091;55.756;37.412;2022-08-19T14:04:01;12.30;;;5.63;;
69034;SDS011;56091;55.756;37.412;2022-08-19T14:09:03;11.60;;;5.10;;
69034;SDS011;56091;55.756;37.412;2022-08-19T14:14:05;16.08;;;5.05;;
69034;SDS011;56091;55.756;37.412;2022-08-19T14:19:06;13.23;;;4.60;;
69034;SDS011;56091;55.756;37.412;2022-08-19T14:24:08;12.95;;;5.32;;
69034;SDS011;56091;55.756;37.412;2022-08-19T14:29:09;25.57;;;5.97;;
69034;SDS011;56091;55.756;37.412;2022-08-19T14:34:10;21.93;;;5.40;;
69034;SDS011;56091;55.756;37.412;2022-08-19T14:39:12;12.23;;;5.40;;
69034;SDS011;56091;55.756;37.412;2022-08-19T14:44:13;15.07;;;7.80;;
69034;SDS011;56091;55.756;37.412;2022-08-19T14:49:15;19.63;;;9.40;;
69034;SDS011;56091;55.756;37.412;2022-08-19T14:54:16;26.47;;;12.00;;
69034;SDS011;56091;55.756;37.412;2022-08-19T14:59:17;19.35;;;12.13;;
69034;SDS011;56091;55.756;37.412;2022-08-19T15:04:18;22.30;;;13.10;;
69034;SDS011;56091;55.756;37.412;2022-08-19T15:09:19;18.70;;;13.80;;
69034;SDS011;56091;55.756;37.412;2022-08-19T15:14:20;21.00;;;14.50;;
69034;SDS011;56091;55.756;37.412;2022-08-19T15:19:21;25.83;;;15.50;;
69034;SDS011;56091;55.756;37.412;2022-08-19T15:24:22;31.33;;;16.00;;
69034;SDS011;56091;55.756;37.412;2022-08-19T15:29:25;27.63;;;16.20;;
69034;SDS011;56091;55.756;37.412;2022-08-19T15:34:27;26.00;;;15.13;;
69034;SDS011;56091;55.756;37.412;2022-08-19T15:39:29;22.80;;;12.65;;
69034;SDS011;56091;55.756;37.412;2022-08-19T15:44:30;15.63;;;10.20;;
69034;SDS011;56091;55.756;37.412;2022-08-19T15:49:31;17.73;;;9.70;;
69034;SDS011;56091;55.756;37.412;2022-08-19T15:54:32;14.57;;;9.40;;
69034;SDS011;56091;55.756;37.412;2022-08-19T15:59:33;19.85;;;9.05;;
69034;SDS011;56091;55.756;37.412;2022-08-19T16:04:54;25.57;;;10.00;;
69034;SDS011;56091;55.756;37.412;2022-08-19T16:10:13;15.27;;;7.65;;
69034;SDS011;56091;55.756;37.412;2022-08-19T16:15:14;15.97;;;7.80;;
69034;SDS011;56091;55.756;37.412;2022-08-19T16:20:15;14.43;;;6.57;;
69034;SDS011;56091;55.756;37.412;2022-08-19T16:25:16;11.23;;;5.78;;
69034;SDS011;56091;55.756;37.412;2022-08-19T16:30:17;13.50;;;5.13;;
69034;SDS011;56091;55.756;37.412;2022-08-19T16:35:18;13.52;;;4.80;;
69034;SDS011;56091;55.756;37.412;2022-08-19T16:40:18;11.67;;;4.70;;
69034;SDS011;56091;55.756;37.412;2022-08-19T16:45:19;16.10;;;4.65;;
69034;SDS011;56091;55.756;37.412;2022-08-19T16:50:21;10.83;;;4.30;;
69034;SDS011;56091;55.756;37.412;2022-08-19T16:55:21;14.93;;;4.20;;
69034;SDS011;56091;55.756;37.412;2022-08-19T17:00:22;14.53;;;4.40;;
69034;SDS011;56091;55.756;37.412;2022-08-19T17:05:23;14.70;;;4.60;;
69034;SDS011;56091;55.756;37.412;2022-08-19T17:10:24;11.60;;;3.97;;
69034;SDS011;56091;55.756;37.412;2022-08-19T17:15:25;10.23;;;4.25;;
69034;SDS011;56091;55.756;37.412;2022-08-19T17:20:26;13.03;;;4.40;;
69034;SDS011;56091;55.756;37.412;2022-08-19T17:25:27;10.90;;;4.20;;
69034;SDS011;56091;55.756;37.412;2022-08-19T17:30:30;10.23;;;3.87;;
69034;SDS011;56091;55.756;37.412;2022-08-19T17:35:31;13.97;;;4.90;;
69034;SDS011;56091;55.756;37.412;2022-08-19T17:40:34;14.57;;;4.50;;
69034;SDS011;56091;55.756;37.412;2022-08-19T17:45:36;12.67;;;4.50;;
69034;SDS011;56091;55.756;37.412;2022-08-19T17:50:38;15.73;;;4.60;;
69034;SDS011;56091;55.756;37.412;2022-08-19T17:55:39;14.13;;;4.17;;
69034;SDS011;56091;55.756;37.412;2022-08-19T18:00:40;12.50;;;4.22;;
69034;SDS011;56091;55.756;37.412;2022-08-19T18:05:41;16.10;;;4.10;;
69034;SDS011;56091;55.756;37.412;2022-08-19T18:10:43;12.20;;;3.92;;
69034;SDS011;56091;55.756;37.412;2022-08-19T18:15:44;13.83;;;4.30;;
69034;SDS011;56091;55.756;37.412;2022-08-19T18:20:46;14.80;;;4.10;;
69034;SDS011;56091;55.756;37.412;2022-08-19T18:25:50;14.03;;;3.90;;
69034;SDS011;56091;55.756;37.412;2022-08-19T18:30:51;12.73;;;4.03;;
69034;SDS011;56091;55.756;37.412;2022-08-19T18:35:52;10.23;;;3.60;;
69034;SDS011;56091;55.756;37.412;2022-08-19T18:40:53;16.60;;;3.70;;
69034;SDS011;56091;55.756;37.412;2022-08-19T18:46:12;9.60;;;3.80;;
69034;SDS011;56091;55.756;37.412;2022-08-19T18:51:32;11.63;;;4.15;;
69034;SDS011;56091;55.756;37.412;2022-08-19T18:56:33;16.40;;;4.07;;
69034;SDS011;56091;55.756;37.412;2022-08-19T19:01:37;12.65;;;3.78;;
69034;SDS011;56091;55.756;37.412;2022-08-19T19:06:42;14.30;;;3.93;;
69034;SDS011;56091;55.756;37.412;2022-08-19T19:11:45;13.02;;;3.83;;
69034;SDS011;56091;55.756;37.412;2022-08-19T19:16:50;14.37;;;3.80;;
69034;SDS011;56091;55.756;37.412;2022-08-19T19:21:51;14.23;;;3.97;;
69034;SDS011;56091;55.756;37.412;2022-08-19T19:26:52;11.97;;;3.90;;
69034;SDS011;56091;55.756;37.412;2022-08-19T19:31:53;11.00;;;3.83;;
69034;SDS011;56091;55.756;37.412;2022-08-19T19:36:55;13.23;;;3.60;;
69034;SDS011;56091;55.756;37.412;2022-08-19T19:41:59;11.60;;;3.47;;
69034;SDS011;56091;55.756;37.412;2022-08-19T19:47:01;10.80;;;3.37;;
69034;SDS011;56091;55.756;37.412;2022-08-19T19:52:02;9.70;;;3.40;;
69034;SDS011;56091;55.756;37.412;2022-08-19T19:57:03;10.00;;;3.20;;
69034;SDS011;56091;55.756;37.412;2022-08-19T20:02:04;10.20;;;3.40;;
69034;SDS011;56091;55.756;37.412;2022-08-19T20:07:05;9.10;;;3.10;;
69034;SDS011;56091;55.756;37.412;2022-08-19T20:12:06;13.68;;;3.58;;
69034;SDS011;56091;55.756;37.412;2022-08-19T20:17:07;13.77;;;3.47;;
69034;SDS011;56091;55.756;37.412;2022-08-19T20:22:07;16.20;;;4.00;;
69034;SDS011;56091;55.756;37.412;2022-08-19T20:27:09;8.45;;;3.60;;
69034;SDS011;56091;55.756;37.412;2022-08-19T20:32:10;14.60;;;3.90;;
69034;SDS011;56091;55.756;37.412;2022-08-19T20:37:12;12.18;;;3.55;;
69034;SDS011;56091;55.756;37.412;2022-08-19T20:42:15;13.63;;;3.80;;
69034;SDS011;56091;55.756;37.412;2022-08-19T20:47:17;13.85;;;3.75;;
69034;SDS011;56091;55.756;37.412;2022-08-19T20:52:19;9.37;;;3.43;;
69034;SDS011;56091;55.756;37.412;2022-08-19T20:57:20;16.67;;;4.13;;
69034;SDS011;56091;55.756;37.412;2022-08-19T21:02:21;10.03;;;3.40;;
69034;SDS011;56091;55.756;37.412;2022-08-19T21:07:24;14.52;;;3.80;;
69034;SDS011;56091;55.756;37.412;2022-08-19T21:12:24;13.17;;;3.30;;
69034;SDS011;56091;55.756;37.412;2022-08-19T21:17:26;9.55;;;3.58;;
69034;SDS011;56091;55.756;37.412;2022-08-19T21:22:27;14.10;;;4.07;;
69034;SDS011;56091;55.756;37.412;2022-08-19T21:27:28;14.88;;;3.97;;
69034;SDS011;56091;55.756;37.412;2022-08-19T21:32:29;16.23;;;3.77;;
69034;SDS011;56091;55.756;37.412;2022-08-19T21:37:33;11.73;;;4.13;;
69034;SDS011;56091;55.756;37.412;2022-08-19T21:42:34;10.50;;;4.20;;
69034;SDS011;56091;55.756;37.412;2022-08-19T21:47:39;10.77;;;4.40;;
69034;SDS011;56091;55.756;37.412;2022-08-19T21:52:40;15.40;;;4.23;;
69034;SDS011;56091;55.756;37.412;2022-08-19T21:57:41;12.90;;;4.53;;
69034;SDS011;56091;55.756;37.412;2022-08-19T22:02:42;10.63;;;4.60;;
69034;SDS011;56091;55.756;37.412;2022-08-19T22:07:42;13.73;;;4.60;;
69034;SDS011;56091;55.756;37.412;2022-08-19T22:12:47;15.60;;;6.27;;
69034;SDS011;56091;55.756;37.412;2022-08-19T22:17:48;14.68;;;5.93;;
69034;SDS011;56091;55.756;37.412;2022-08-19T22:22:53;17.93;;;6.80;;
69034;SDS011;56091;55.756;37.412;2022-08-19T22:27:58;14.90;;;7.13;;
69034;SDS011;56091;55.756;37.412;2022-08-19T22:33:04;18.30;;;7.83;;
69034;SDS011;56091;55.756;37.412;2022-08-19T22:38:07;20.25;;;8.27;;
69034;SDS011;56091;55.756;37.412;2022-08-19T22:43:10;18.57;;;9.37;;
69034;SDS011;56091;55.756;37.412;2022-08-19T22:48:33;18.55;;;8.60;;
69034;SDS011;56091;55.756;37.412;2022-08-19T22:53:35;18.73;;;9.37;;
69034;SDS011;56091;55.756;37.412;2022-08-19T22:58:37;22.08;;;9.82;;
69034;SDS011;56091;55.756;37.412;2022-08-19T23:03:38;32.47;;;10.10;;
69034;SDS011;56091;55.756;37.412;2022-08-19T23:08:40;24.60;;;10.23;;
69034;SDS011;56091;55.756;37.412;2022-08-19T23:13:41;19.43;;;9.97;;
69034;SDS011;56091;55.756;37.412;2022-08-19T23:18:42;19.93;;;9.50;;
69034;SDS011;56091;55.756;37.412;2022-08-19T23:23:44;17.40;;;9.40;;
69034;SDS011;56091;55.756;37.412;2022-08-19T23:28:48;17.02;;;9.35;;
69034;SDS011;56091;55.756;37.412;2022-08-19T23:34:09;22.07;;;11.37;;
69034;SDS011;56091;55.756;37.412;2022-08-19T23:39:10;26.50;;;12.38;;
69034;SDS011;56091;55.756;37.412;2022-08-19T23:44:11;24.43;;;12.80;;
69034;SDS011;56091;55.756;37.412;2022-08-19T23:49:15;29.73;;;14.98;;
69034;SDS011;56091;55.756;37.412;2022-08-19T23:54:16;28.57;;;15.80;;
69034;SDS011;56091;55.756;37.412;2022-08-19T23:59:17;36.57;;;17.63;;
